createdAt,value
2023-09-22T00:00:21.784Z,4.97
2023-09-22T00:04:34.004Z,4.53
2023-09-22T00:08:47.112Z,5.38
2023-09-22T00:12:59.656Z,4.78
2023-09-22T00:17:11.851Z,4.28
2023-09-22T00:21:24.068Z,5.03
2023-09-22T00:25:36.273Z,7.07
2023-09-22T00:29:48.454Z,7.93
2023-09-22T00:34:00.643Z,7.10
2023-09-22T00:38:12.905Z,7.70
2023-09-22T00:42:25.442Z,7.35
2023-09-22T00:46:39.170Z,8.35
2023-09-22T00:50:52.462Z,7.57
2023-09-22T00:55:07.388Z,8.13
2023-09-22T00:59:19.967Z,7.97
2023-09-22T01:03:32.384Z,6.93
2023-09-22T01:07:46.269Z,7.90
2023-09-22T01:11:58.519Z,6.80
2023-09-22T01:16:11.019Z,8.02
2023-09-22T01:20:24.389Z,6.90
2023-09-22T01:24:36.847Z,7.22
2023-09-22T01:28:49.463Z,6.88
2023-09-22T01:33:05.018Z,8.68
2023-09-22T01:37:18.039Z,8.73
2023-09-22T01:41:30.465Z,8.60
2023-09-22T01:45:42.815Z,8.75
2023-09-22T01:49:55.788Z,6.82
2023-09-22T01:54:08.043Z,7.80
2023-09-22T01:58:21.563Z,6.30
2023-09-22T02:02:35.740Z,6.90
2023-09-22T02:06:48.128Z,5.40
2023-09-22T02:11:00.586Z,5.40
2023-09-22T02:15:13.832Z,5.25
2023-09-22T02:19:26.658Z,5.45
2023-09-22T02:23:38.994Z,4.63
2023-09-22T02:27:55.841Z,4.78
2023-09-22T02:32:08.690Z,4.97
2023-09-22T02:36:21.181Z,4.38
2023-09-22T02:40:33.432Z,4.90
2023-09-22T02:44:45.645Z,4.82
2023-09-22T02:48:58.640Z,4.43
2023-09-22T02:53:11.049Z,4.47
2023-09-22T02:57:23.412Z,4.40
2023-09-22T03:01:37.995Z,4.28
2023-09-22T03:05:50.342Z,7.03
2023-09-22T03:10:04.018Z,5.22
2023-09-22T03:14:16.433Z,4.80
2023-09-22T03:18:29.614Z,5.03
2023-09-22T03:22:43.703Z,4.18
2023-09-22T03:26:56.221Z,4.53
2023-09-22T03:31:08.995Z,4.38
2023-09-22T03:35:22.852Z,4.95
2023-09-22T03:39:35.448Z,4.22
2023-09-22T03:43:48.862Z,4.55
2023-09-22T03:48:01.219Z,4.65
2023-09-22T03:52:15.614Z,4.65
2023-09-22T03:56:27.921Z,4.38
2023-09-22T04:00:41.516Z,4.60
2023-09-22T04:04:57.336Z,4.57
2023-09-22T04:09:11.190Z,4.28
2023-09-22T04:13:25.532Z,4.47
2023-09-22T04:17:39.854Z,5.40
2023-09-22T04:21:55.917Z,5.18
2023-09-22T04:26:10.965Z,5.82
2023-09-22T04:30:23.708Z,6.32
2023-09-22T04:34:38.950Z,7.15
2023-09-22T04:38:51.796Z,7.50
2023-09-22T04:43:06.597Z,7.07
2023-09-22T04:47:19.105Z,8.10
2023-09-22T04:51:31.513Z,7.30
2023-09-22T04:55:44.039Z,7.22
2023-09-22T04:59:56.285Z,7.22
2023-09-22T05:04:08.586Z,6.40
2023-09-22T05:08:21.380Z,7.75
2023-09-22T05:12:33.783Z,6.40
2023-09-22T05:16:46.136Z,7.25
2023-09-22T05:21:01.192Z,6.57
2023-09-22T05:25:15.421Z,8.40
2023-09-22T05:29:27.841Z,8.02
2023-09-22T05:33:40.125Z,8.55
2023-09-22T05:37:53.800Z,7.78
2023-09-22T05:42:07.773Z,8.85
2023-09-22T05:46:20.084Z,8.50
2023-09-22T05:50:32.520Z,8.13
2023-09-22T05:54:46.843Z,8.68
2023-09-22T05:58:59.445Z,8.73
2023-09-22T06:03:11.800Z,9.02
2023-09-22T06:07:24.083Z,9.57
2023-09-22T06:11:36.337Z,9.85
2023-09-22T06:15:48.657Z,9.98
2023-09-22T06:20:06.103Z,9.93
2023-09-22T06:24:19.135Z,10.50
2023-09-22T06:28:31.402Z,9.98
2023-09-22T06:32:44.520Z,10.52
2023-09-22T06:36:56.734Z,10.10
2023-09-22T06:41:09.304Z,10.38
2023-09-22T06:45:21.537Z,10.68
2023-09-22T06:49:34.934Z,9.80
2023-09-22T06:53:49.698Z,9.10
2023-09-22T06:58:02.009Z,9.38
2023-09-22T07:02:14.468Z,9.13
2023-09-22T07:06:26.729Z,7.05
2023-09-22T07:10:39.537Z,7.03
2023-09-22T07:14:51.865Z,7.18
2023-09-22T07:19:04.320Z,7.93
2023-09-22T07:23:16.762Z,8.27
2023-09-22T07:27:29.455Z,8.45
2023-09-22T07:31:42.000Z,7.65
2023-09-22T07:35:54.340Z,6.88
2023-09-22T07:40:11.019Z,6.95
2023-09-22T07:44:24.056Z,6.88
2023-09-22T07:48:38.443Z,7.80
2023-09-22T07:52:51.205Z,7.28
2023-09-22T07:57:03.974Z,12.20
2023-09-22T08:01:20.205Z,12.77
2023-09-22T08:05:32.692Z,11.85
2023-09-22T08:09:45.129Z,10.60
2023-09-22T08:13:59.597Z,11.20
2023-09-22T08:18:12.074Z,10.25
2023-09-22T08:22:26.528Z,10.45
2023-09-22T08:26:38.959Z,13.48
2023-09-22T08:30:51.402Z,12.80
2023-09-22T08:35:04.316Z,12.05
2023-09-22T08:39:16.664Z,5.72
2023-09-22T08:43:29.294Z,5.95
2023-09-22T08:47:44.251Z,5.07
2023-09-22T08:51:57.674Z,5.65
2023-09-22T08:56:11.371Z,6.93
2023-09-22T09:00:24.944Z,5.55
2023-09-22T09:04:43.115Z,6.10
2023-09-22T09:09:14.536Z,5.35
2023-09-22T09:13:28.668Z,5.38
2023-09-22T09:17:40.923Z,5.78
2023-09-22T09:22:15.300Z,5.50
2023-09-22T09:26:47.235Z,4.93
2023-09-22T09:30:59.981Z,6.57
2023-09-22T09:35:12.791Z,6.07
2023-09-22T09:39:43.898Z,5.25
2023-09-22T09:43:56.539Z,5.15
2023-09-22T09:48:11.449Z,5.93
2023-09-22T09:52:29.157Z,5.80
2023-09-22T09:56:43.043Z,6.57
2023-09-22T10:00:59.590Z,5.68
2023-09-22T10:05:12.737Z,6.20
2023-09-22T10:09:25.109Z,5.75
2023-09-22T10:13:37.546Z,4.90
2023-09-22T10:17:56.783Z,7.50
2023-09-22T10:22:13.806Z,6.15
2023-09-22T10:26:26.317Z,6.43
2023-09-22T10:30:44.596Z,5.78
2023-09-22T10:34:59.851Z,6.30
2023-09-22T10:39:12.123Z,6.03
2023-09-22T10:43:24.280Z,6.07
2023-09-22T10:47:38.719Z,6.07
2023-09-22T10:51:50.932Z,6.15
2023-09-22T10:56:07.136Z,6.85
2023-09-22T11:00:20.314Z,6.22
2023-09-22T11:04:42.917Z,6.63
2023-09-22T11:08:55.381Z,5.90
2023-09-22T11:13:09.125Z,6.20
2023-09-22T11:17:21.905Z,6.40
2023-09-22T11:21:40.828Z,7.82
2023-09-22T11:26:01.822Z,6.95
2023-09-22T11:30:17.665Z,6.95
2023-09-22T11:34:29.816Z,6.78
2023-09-22T11:38:42.166Z,5.97
2023-09-22T11:42:54.385Z,6.85
2023-09-22T11:47:06.624Z,7.07
2023-09-22T11:51:19.152Z,5.93
2023-09-22T11:55:32.356Z,6.72
2023-09-22T11:59:46.630Z,7.28
2023-09-22T12:03:58.816Z,6.60
2023-09-22T12:08:11.460Z,6.63
2023-09-22T12:12:23.749Z,5.88
2023-09-22T12:16:36.190Z,7.43
2023-09-22T12:20:48.537Z,6.50
2023-09-22T12:25:00.614Z,6.28
2023-09-22T12:29:15.110Z,6.18
2023-09-22T12:33:27.455Z,6.40
2023-09-22T12:37:39.674Z,7.50
2023-09-22T12:41:51.854Z,5.82
2023-09-22T12:46:08.154Z,5.47
2023-09-22T12:50:20.353Z,7.03
2023-09-22T12:54:32.543Z,5.70
2023-09-22T12:58:44.898Z,6.07
2023-09-22T13:02:58.294Z,6.18
2023-09-22T13:07:11.030Z,5.80
2023-09-22T13:11:23.198Z,6.28
2023-09-22T13:15:36.511Z,5.75
2023-09-22T13:19:48.758Z,6.57
2023-09-22T13:24:01.029Z,7.15
2023-09-22T13:28:13.525Z,6.40
2023-09-22T13:32:25.753Z,6.15
2023-09-22T13:36:38.266Z,6.18
2023-09-22T13:40:51.926Z,7.07
2023-09-22T13:45:04.853Z,6.35
2023-09-22T13:49:17.160Z,7.15
2023-09-22T13:53:29.384Z,7.22
2023-09-22T13:57:43.497Z,6.05
2023-09-22T14:04:12.818Z,6.55
2023-09-22T14:08:25.267Z,7.35
2023-09-22T14:12:38.566Z,7.00
2023-09-22T14:16:52.679Z,7.60
2023-09-22T14:21:05.715Z,8.68
2023-09-22T14:25:20.261Z,8.15
2023-09-22T14:29:33.030Z,6.88
2023-09-22T14:33:46.234Z,7.47
2023-09-22T14:37:59.322Z,7.88
2023-09-22T14:42:11.907Z,6.95
2023-09-22T14:46:24.901Z,7.68
2023-09-22T14:50:37.888Z,7.22
2023-09-22T14:54:50.329Z,7.55
2023-09-22T14:59:02.797Z,8.43
2023-09-22T15:03:15.989Z,6.75
2023-09-22T15:07:28.403Z,8.55
2023-09-22T15:11:40.903Z,7.60
2023-09-22T15:15:53.418Z,8.65
2023-09-22T15:20:07.614Z,7.10
2023-09-22T15:24:20.064Z,11.05
2023-09-22T15:28:32.754Z,8.52
2023-09-22T15:32:45.288Z,7.78
2023-09-22T15:36:58.110Z,8.07
2023-09-22T15:41:11.675Z,8.50
2023-09-22T15:45:24.190Z,9.68
2023-09-22T15:49:36.815Z,8.23
2023-09-22T15:53:50.066Z,9.15
2023-09-22T15:58:02.565Z,8.80
2023-09-22T16:02:14.996Z,9.40
2023-09-22T16:06:27.731Z,8.15
2023-09-22T16:10:44.638Z,7.82
2023-09-22T16:14:57.272Z,8.27
2023-09-22T16:19:10.452Z,9.52
2023-09-22T16:23:22.987Z,7.88
2023-09-22T16:27:35.671Z,8.30
2023-09-22T16:31:48.081Z,9.38
2023-09-22T16:36:00.570Z,8.43
2023-09-22T16:40:13.573Z,13.48
2023-09-22T16:44:26.272Z,9.48
2023-09-22T16:48:39.149Z,10.73
2023-09-22T16:52:51.570Z,14.90
2023-09-22T16:57:05.117Z,11.00
2023-09-22T17:01:17.625Z,11.27
2023-09-22T17:05:30.468Z,11.68
2023-09-22T17:09:43.416Z,12.10
2023-09-22T17:13:55.925Z,10.27
2023-09-22T17:18:10.519Z,11.55
2023-09-22T17:22:25.732Z,20.80
2023-09-22T17:26:38.222Z,11.10
2023-09-22T17:30:59.092Z,10.55
2023-09-22T17:35:13.298Z,12.70
2023-09-22T17:39:25.652Z,15.02
2023-09-22T17:43:38.143Z,11.02
2023-09-22T17:47:50.872Z,14.82
2023-09-22T17:52:03.521Z,22.15
2023-09-22T17:56:16.213Z,13.13
2023-09-22T18:00:29.931Z,14.38
2023-09-22T18:04:42.723Z,15.32
2023-09-22T18:08:55.240Z,14.38
2023-09-22T18:13:10.243Z,11.55
2023-09-22T18:17:23.415Z,10.60
2023-09-22T18:21:36.363Z,15.40
2023-09-22T18:26:09.521Z,17.17
2023-09-22T18:30:23.172Z,14.00
2023-09-22T18:34:36.324Z,10.40
2023-09-22T18:38:49.062Z,9.88
2023-09-22T18:43:02.749Z,9.05
2023-09-22T18:47:15.403Z,9.43
2023-09-22T18:51:29.119Z,8.75
2023-09-22T18:55:51.600Z,10.25
2023-09-22T19:00:05.528Z,11.05
2023-09-22T19:04:19.192Z,9.95
2023-09-22T19:08:32.054Z,9.35
2023-09-22T19:12:44.564Z,9.32
2023-09-22T19:16:57.149Z,10.75
2023-09-22T19:21:09.616Z,9.77
2023-09-22T19:25:22.630Z,9.43
2023-09-22T19:29:35.192Z,9.57
2023-09-22T19:33:48.253Z,12.30
2023-09-22T19:38:01.682Z,10.02
2023-09-22T19:42:14.322Z,10.10
2023-09-22T19:46:28.365Z,9.60
2023-09-22T19:50:41.005Z,11.57
2023-09-22T19:54:53.718Z,10.27
2023-09-22T19:59:07.578Z,11.07
2023-09-22T20:03:20.519Z,9.40
2023-09-22T20:07:34.237Z,10.07
2023-09-22T20:11:48.159Z,10.00
2023-09-22T20:16:02.356Z,11.88
2023-09-22T20:20:16.534Z,11.30
2023-09-22T20:24:29.736Z,9.85
2023-09-22T20:28:42.298Z,9.40
2023-09-22T20:32:55.011Z,9.70
2023-09-22T20:37:07.569Z,9.82
2023-09-22T20:41:20.096Z,9.88
2023-09-22T20:45:32.773Z,10.05
2023-09-22T20:49:46.618Z,9.43
2023-09-22T20:53:59.532Z,12.88
2023-09-22T20:58:12.311Z,13.90
2023-09-22T21:02:24.938Z,9.93
2023-09-22T21:06:37.920Z,14.73
2023-09-22T21:10:56.682Z,12.23
2023-09-22T21:15:11.533Z,11.88
2023-09-22T21:19:26.046Z,11.50
2023-09-22T21:23:38.799Z,9.68
2023-09-22T21:27:52.431Z,10.48
2023-09-22T21:32:05.150Z,10.55
2023-09-22T21:36:19.428Z,12.05
2023-09-22T21:40:32.369Z,9.80
2023-09-22T21:44:45.440Z,10.02
2023-09-22T21:48:58.058Z,10.90
2023-09-22T21:53:11.129Z,11.32
2023-09-22T21:57:24.027Z,10.68
2023-09-22T22:01:36.572Z,10.30
2023-09-22T22:05:49.131Z,10.70
2023-09-22T22:10:02.269Z,11.02
2023-09-22T22:14:16.260Z,11.07
2023-09-22T22:18:28.827Z,10.70
2023-09-22T22:22:43.148Z,11.50
2023-09-22T22:26:56.877Z,12.45
2023-09-22T22:31:09.583Z,13.57
2023-09-22T22:35:22.542Z,12.43
2023-09-22T22:39:35.556Z,11.48
2023-09-22T22:43:48.222Z,12.43
2023-09-22T22:48:05.176Z,14.05
2023-09-22T22:52:18.044Z,12.30
2023-09-22T22:56:30.697Z,12.23
2023-09-22T23:00:43.401Z,11.25
2023-09-22T23:04:56.498Z,11.18
2023-09-22T23:09:15.506Z,12.60
2023-09-22T23:13:30.317Z,13.75
2023-09-22T23:17:42.962Z,10.80
2023-09-22T23:21:56.128Z,11.32
2023-09-22T23:26:08.645Z,11.38
2023-09-22T23:30:24.346Z,11.73
2023-09-22T23:34:37.653Z,10.35
2023-09-22T23:38:50.245Z,10.55
2023-09-22T23:43:04.909Z,10.07
2023-09-22T23:47:17.429Z,10.35
2023-09-22T23:51:29.958Z,10.35
2023-09-22T23:55:42.443Z,11.23
2023-09-22T23:59:55.039Z,10.40
